Stephen M. White — WCU6542 — position and weather

sailwx.info

Track history (hours):
 
Tides and Currents Weather Stations Pressure Air Temp Water Temp Dewpoint Dewpoint Depression Visibility Wind Speed Wind Dir Waves Ship Positions

Stephen M. White

Owner: LOS ANGELES, CITY OF, SAN PEDRO, CA. More information available from US FCC via Universal Licensing System and Coast Guard Vessel Documentation Center.

Last reported at 2017-Aug-24 08:30 UTC. Time now 2017-Aug-24 08:43 UTC.
Position N 33°43' W 118°16'.

Length 13 m.

Type: Other ship. MMSI: 367049470.

Date/timePositionNaut miles runAvg speedWind from/ knotsBaromVisibWave heightAir tempDewpointWater temp
2017-Aug-24 08:30N 33°43' W 118°16'0 0.0
2017-Aug-24 07:59N 33°43' W 118°16'0 0.0
2017-Aug-24 07:30N 33°43' W 118°16'0 0.0
2017-Aug-24 06:48N 33°43' W 118°16'0 0.0
2017-Aug-24 06:05N 33°43' W 118°16'0 0.0
2017-Aug-24 05:58N 33°43' W 118°16'0 0.0
2017-Aug-24 05:30N 33°43' W 118°16'0 0.0
2017-Aug-24 04:50N 33°43' W 118°16'0 0.0
2017-Aug-24 04:27N 33°43' W 118°16'0 0.0
2017-Aug-24 03:54N 33°43' W 118°16'0 0.0
2017-Aug-24 03:30N 33°43' W 118°16'0 0.0
2017-Aug-24 03:00N 33°43' W 118°16'0 0.0
2017-Aug-24 02:30N 33°43' W 118°16'0 0.0
2017-Aug-24 01:57N 33°43' W 118°16'0 0.0
2017-Aug-24 01:29N 33°43' W 118°16'2 4.5
2017-Aug-24 01:00N 33°42' W 118°14'2 3.4
2017-Aug-24 00:30N 33°43' W 118°16'0 0.8
2017-Aug-24 00:00N 33°43' W 118°16'1 2.0
2017-Aug-23 23:30N 33°43' W 118°15'1 2.0
2017-Aug-23 23:00N 33°43' W 118°16'0 0.0
2017-Aug-23 22:30N 33°43' W 118°16'0 0.0
2017-Aug-23 22:00N 33°43' W 118°16'0 0.0
2017-Aug-23 21:30N 33°43' W 118°16'0 0.0
2017-Aug-23 20:58N 33°43' W 118°16'4 7.9
2017-Aug-23 20:30N 33°43' W 118°12'3 5.0
2017-Aug-23 20:00N 33°43' W 118°15'1 2.7
2017-Aug-23 19:30N 33°43' W 118°16'0 0.0
2017-Aug-23 19:00N 33°43' W 118°16'0 0.0
2017-Aug-23 18:30N 33°43' W 118°16'0 0.0
2017-Aug-23 18:01N 33°43' W 118°16'0 0.0
2017-Aug-23 17:30N 33°43' W 118°16'0 0.0
2017-Aug-23 17:01N 33°43' W 118°16'0 0.0
2017-Aug-23 16:29N 33°43' W 118°16'0 0.0
2017-Aug-23 16:01N 33°43' W 118°16'1 1.1
2017-Aug-23 15:30N 33°44' W 118°17'1 1.1
2017-Aug-23 15:00N 33°43' W 118°16'0 0.0
2017-Aug-23 14:30N 33°43' W 118°16'0 0.0
2017-Aug-23 12:38N 33°43' W 118°16'0 0.0
2017-Aug-23 12:30N 33°43' W 118°16'0 0.0
2017-Aug-23 11:56N 33°43' W 118°16'0 0.0
2017-Aug-23 11:29N 33°43' W 118°16'0 0.0
2017-Aug-23 10:54N 33°43' W 118°16'0 0.0
2017-Aug-23 10:30N 33°43' W 118°16'0 0.0
2017-Aug-23 09:47N 33°43' W 118°16'0 0.0
2017-Aug-23 09:31N 33°43' W 118°16'0 0.0
2017-Aug-23 09:00N 33°43' W 118°16'1 1.0
2017-Aug-23 08:24N 33°43' W 118°16'0 0.1
2017-Aug-23 07:56N 33°43' W 118°16'1 1.1
2017-Aug-23 07:24N 33°43' W 118°16'0 0.0
2017-Aug-23 07:00N 33°43' W 118°16'0 0.0
2017-Aug-23 06:30N 33°43' W 118°16'0 0.0
2017-Aug-23 05:59N 33°43' W 118°16'0 0.0
2017-Aug-23 05:24N 33°43' W 118°16'0 0.0
2017-Aug-23 05:00N 33°43' W 118°16'2 3.3
2017-Aug-23 04:30N 33°42' W 118°15'0 0.5
2017-Aug-23 04:01N 33°42' W 118°15'2 3.8
2017-Aug-23 03:30N 33°43' W 118°16'1 2.9
2017-Aug-23 03:00N 33°42' W 118°15'1 2.8
2017-Aug-23 02:30N 33°43' W 118°16'0 0.0
2017-Aug-23 02:00N 33°43' W 118°16'0 0.0
2017-Aug-23 01:30N 33°43' W 118°16'0 0.0
2017-Aug-23 01:01N 33°43' W 118°16'0 0.0
2017-Aug-23 00:31N 33°43' W 118°16'0 0.9
2017-Aug-23 00:00N 33°43' W 118°16'0 0.9
2017-Aug-22 23:30N 33°43' W 118°16'0 0.0
2017-Aug-22 23:00N 33°43' W 118°16'0 0.0
2017-Aug-22 22:30N 33°43' W 118°16'1 1.8
2017-Aug-22 22:00N 33°43' W 118°15'1 1.7
2017-Aug-22 21:29N 33°43' W 118°16'0 1.0
2017-Aug-22 21:00N 33°43' W 118°16'0 0.9
2017-Aug-22 20:28N 33°43' W 118°16'0 0.0
2017-Aug-22 20:00N 33°43' W 118°16'0 0.0
2017-Aug-22 19:30N 33°43' W 118°16'0 0.0
2017-Aug-22 19:00N 33°43' W 118°16'0 0.0
2017-Aug-22 18:30N 33°43' W 118°16'0 0.0
2017-Aug-22 18:00N 33°43' W 118°16'0 0.0
2017-Aug-22 17:30N 33°43' W 118°16'0 0.0
2017-Aug-22 17:00N 33°43' W 118°16'0 0.0
2017-Aug-22 16:30N 33°43' W 118°16'0 0.0
2017-Aug-22 16:00N 33°43' W 118°16'0 0.0
2017-Aug-22 15:30N 33°43' W 118°16'0 0.0
2017-Aug-22 14:59N 33°43' W 118°16'0 0.0
2017-Aug-22 14:30N 33°43' W 118°16'0 0.0
2017-Aug-22 13:48N 33°43' W 118°16'0 0.0
2017-Aug-22 13:26N 33°43' W 118°16'0 0.0
2017-Aug-22 12:56N 33°43' W 118°16'0 0.0
2017-Aug-22 12:04N 33°43' W 118°16'0 0.0
2017-Aug-22 11:42N 33°43' W 118°16'419.0
2017-Aug-22 11:30N 33°40' W 118°14'3 5.6
2017-Aug-22 10:54N 33°43' W 118°16'0 0.2
2017-Aug-22 10:07N 33°43' W 118°16'0 0.0
2017-Aug-22 10:00N 33°43' W 118°16'0 0.0
2017-Aug-22 09:30N 33°43' W 118°16'3 5.0
2017-Aug-22 09:00N 33°41' W 118°15'3 5.0
2017-Aug-22 08:30N 33°43' W 118°16'0 0.0
2017-Aug-22 08:00N 33°43' W 118°16'0 0.0
2017-Aug-22 07:30N 33°43' W 118°16'2 3.5
2017-Aug-22 06:56N 33°42' W 118°15'2 1.3
2017-Aug-22 05:23N 33°43' W 118°16'0 0.8
2017-Aug-22 05:00N 33°43' W 118°16'0 0.6
2017-Aug-22 04:30N 33°43' W 118°16'0 0.0
2017-Aug-22 04:00N 33°43' W 118°16'0 0.0
2017-Aug-22 03:30N 33°43' W 118°16'0 0.0
2017-Aug-22 03:00N 33°43' W 118°16'0 0.0
2017-Aug-22 02:30N 33°43' W 118°16'0 0.0
2017-Aug-22 02:00N 33°43' W 118°16'2 4.7
2017-Aug-22 01:30N 33°42' W 118°14'2 4.7
2017-Aug-22 01:00N 33°43' W 118°16'1 2.4
2017-Aug-22 00:31N 33°43' W 118°15'1 2.3
2017-Aug-22 00:00N 33°43' W 118°16'2 3.7
2017-Aug-21 23:30N 33°42' W 118°15'2 3.7
2017-Aug-21 23:00N 33°43' W 118°16'0 0.0
2017-Aug-21 22:30N 33°43' W 118°16'0 0.0
2017-Aug-21 22:00N 33°43' W 118°16'2 3.1
2017-Aug-21 21:30N 33°42' W 118°15'2 3.1
2017-Aug-21 21:00N 33°43' W 118°16'0 0.0
2017-Aug-21 20:27N 33°43' W 118°16'0 0.0
2017-Aug-21 20:00N 33°43' W 118°16'0 0.0
2017-Aug-21 19:29N 33°43' W 118°16'0 0.0
2017-Aug-21 19:00N 33°43' W 118°16'0 0.0
2017-Aug-21 18:30N 33°43' W 118°16'0 0.0
2017-Aug-21 18:00N 33°43' W 118°16'1 1.6
2017-Aug-21 17:31N 33°43' W 118°15'1 1.5
2017-Aug-21 17:00N 33°43' W 118°16'0 0.0
2017-Aug-21 16:30N 33°43' W 118°16'0 0.0
2017-Aug-21 15:58N 33°43' W 118°16'0 0.0
2017-Aug-21 15:21N 33°43' W 118°16'0 0.0
2017-Aug-21 14:59N 33°43' W 118°16'0 0.0
2017-Aug-21 14:30N 33°43' W 118°16'0 0.0
2017-Aug-21 13:59N 33°43' W 118°16'0 0.0
2017-Aug-21 13:16N 33°43' W 118°16'0 0.0
2017-Aug-21 13:00N 33°43' W 118°16'0 0.0
2017-Aug-21 12:24N 33°43' W 118°16'0 0.0
2017-Aug-21 12:00N 33°43' W 118°16'0 0.0
2017-Aug-21 11:30N 33°43' W 118°16'0 0.0
2017-Aug-21 10:56N 33°43' W 118°16'0 0.0
2017-Aug-21 10:25N 33°43' W 118°16'0 0.0
2017-Aug-21 09:53N 33°43' W 118°16'0 0.0
2017-Aug-21 09:29N 33°43' W 118°16'0 0.0
2017-Aug-21 08:59N 33°43' W 118°16'0 0.0
2017-Aug-21 08:30N 33°43' W 118°16'0 0.0
2017-Aug-21 08:00N 33°43' W 118°16'0 0.0
2017-Aug-21 07:30N 33°43' W 118°16'0 0.0
2017-Aug-21 05:42N 33°43' W 118°16'0 0.0
2017-Aug-21 04:07N 33°43' W 118°16'0 0.0
2017-Aug-21 03:18N 33°43' W 118°16'0 0.7
2017-Aug-21 03:00N 33°43' W 118°16'0 0.4
2017-Aug-21 02:28N 33°43' W 118°16'0 0.0
2017-Aug-21 02:00N 33°43' W 118°16'0 0.0
2017-Aug-21 01:30N 33°43' W 118°16'0 0.0
2017-Aug-21 01:00N 33°43' W 118°16'0 0.0
2017-Aug-21 00:30N 33°43' W 118°16'0 0.0
2017-Aug-21 00:00N 33°43' W 118°16'0 0.0
2017-Aug-20 23:30N 33°43' W 118°16'0 0.0
2017-Aug-20 23:00N 33°43' W 118°16'0 0.0
2017-Aug-20 22:30N 33°43' W 118°16'0 0.0
2017-Aug-20 21:49N 33°43' W 118°16'0 0.0
2017-Aug-20 21:30N 33°43' W 118°16'0 0.0
2017-Aug-20 20:58N 33°43' W 118°16'0 0.0
2017-Aug-20 20:28N 33°43' W 118°16'0 0.0
2017-Aug-20 20:00N 33°43' W 118°16'0 0.0
2017-Aug-20 19:27N 33°43' W 118°16'0 0.0
2017-Aug-20 19:00N 33°43' W 118°16'0 0.0
2017-Aug-20 18:30N 33°43' W 118°16'0 0.0
2017-Aug-20 18:00N 33°43' W 118°16'0 0.0
2017-Aug-20 17:30N 33°43' W 118°16'0 0.0
2017-Aug-20 17:00N 33°43' W 118°16'0 0.0
2017-Aug-20 16:30N 33°43' W 118°16'0 0.0
2017-Aug-20 16:00N 33°43' W 118°16'0 0.0
2017-Aug-20 15:30N 33°43' W 118°16'0 0.0
2017-Aug-20 15:00N 33°43' W 118°16'0 0.0
2017-Aug-20 14:06N 33°43' W 118°16'0 1.3
2017-Aug-20 13:51N 33°44' W 118°16'0 0.5
2017-Aug-20 13:14N 33°43' W 118°16'1 4.3
2017-Aug-20 12:55N 33°42' W 118°15'1 0.9
2017-Aug-20 11:24N 33°43' W 118°16'0 0.2
2017-Aug-20 10:59N 33°43' W 118°16'0 0.2
2017-Aug-20 10:30N 33°43' W 118°16'0 0.2
2017-Aug-20 09:57N 33°43' W 118°16'0 0.3
2017-Aug-20 09:27N 33°43' W 118°16'0 0.0
2017-Aug-20 09:00N 33°43' W 118°16'0 0.0
2017-Aug-20 08:29N 33°43' W 118°16'0 0.0
2017-Aug-20 07:58N 33°43' W 118°16'0 0.0
2017-Aug-20 07:29N 33°43' W 118°16'0 0.0
2017-Aug-20 06:08N 33°43' W 118°16'0 0.0
2017-Aug-20 06:00N 33°43' W 118°16'0 0.0
2017-Aug-20 05:18N 33°43' W 118°16'0 0.0
2017-Aug-20 05:00N 33°43' W 118°16'0 0.0
2017-Aug-20 04:28N 33°43' W 118°16'0 0.0
2017-Aug-20 04:00N 33°43' W 118°16'0 0.0
2017-Aug-20 03:29N 33°43' W 118°16'0 0.0
2017-Aug-20 03:00N 33°43' W 118°16'0 0.0
2017-Aug-20 02:30N 33°43' W 118°16'0 0.0
2017-Aug-20 02:00N 33°43' W 118°16'0 0.0
2017-Aug-20 01:28N 33°43' W 118°16'0 0.0
2017-Aug-20 01:00N 33°43' W 118°16'0 0.0
2017-Aug-20 00:30N 33°43' W 118°16'0 0.0
2017-Aug-20 00:00N 33°43' W 118°16'0 0.0
2017-Aug-19 23:30N 33°43' W 118°16'0 0.0
2017-Aug-19 23:00N 33°43' W 118°16'0 0.0
2017-Aug-19 22:30N 33°43' W 118°16'0 0.0
2017-Aug-19 22:00N 33°43' W 118°16'0 0.0
2017-Aug-19 21:30N 33°43' W 118°16'0 0.0
2017-Aug-19 21:00N 33°43' W 118°16'4 6.7
2017-Aug-19 20:27N 33°42' W 118°12'4 7.3
2017-Aug-19 19:56N 33°43' W 118°16'0 0.3
2017-Aug-19 19:30N 33°43' W 118°16'3 5.2
2017-Aug-19 18:59N 33°41' W 118°14'3 5.3
2017-Aug-19 18:30N 33°43' W 118°16'0 0.3
2017-Aug-19 18:00N 33°43' W 118°16'0 0.0
2017-Aug-19 17:29N 33°43' W 118°16'0 0.0
2017-Aug-19 17:00N 33°43' W 118°16'0 0.0
2017-Aug-19 16:30N 33°43' W 118°16'0 0.0
2017-Aug-19 16:00N 33°43' W 118°16'0 0.0
2017-Aug-19 15:30N 33°43' W 118°16'0 0.0
2017-Aug-19 14:58N 33°43' W 118°16'0 0.0
2017-Aug-19 14:00N 33°43' W 118°16'0 0.0
2017-Aug-19 13:28N 33°43' W 118°16'1 3.3
2017-Aug-19 13:01N 33°42' W 118°15'1 2.8
2017-Aug-19 12:29N 33°43' W 118°16'0 0.0
2017-Aug-19 11:59N 33°43' W 118°16'0 0.0
2017-Aug-19 11:30N 33°43' W 118°16'0 0.0
2017-Aug-19 11:01N 33°43' W 118°16'0 0.0
2017-Aug-19 10:30N 33°43' W 118°16'1 1.2
2017-Aug-19 10:00N 33°43' W 118°16'1 1.2
2017-Aug-19 09:29N 33°43' W 118°16'0 0.0
2017-Aug-19 08:58N 33°43' W 118°16'0 0.0
2017-Aug-19 08:30N 33°43' W 118°16'0 0.0
2017-Aug-19 07:49N 33°43' W 118°16'0 0.0
2017-Aug-19 07:31N 33°43' W 118°16'0 0.0
2017-Aug-19 07:00N 33°43' W 118°16'0 0.0
2017-Aug-19 06:30N 33°43' W 118°16'0 0.0
2017-Aug-19 06:00N 33°43' W 118°16'0 0.0
2017-Aug-19 05:31N 33°43' W 118°16'0 0.0
2017-Aug-19 05:01N 33°43' W 118°16'0 0.0
2017-Aug-19 04:31N 33°43' W 118°16'0 0.0
2017-Aug-19 04:01N 33°43' W 118°16'0 0.0
2017-Aug-19 03:31N 33°43' W 118°16'0 0.0
2017-Aug-19 03:01N 33°43' W 118°16'0 0.0
2017-Aug-19 02:31N 33°43' W 118°16'0 0.0
2017-Aug-19 02:00N 33°43' W 118°16'0 0.0
2017-Aug-19 01:30N 33°43' W 118°16'0 0.0
2017-Aug-19 01:00N 33°43' W 118°16'0 0.0
2017-Aug-19 00:30N 33°43' W 118°16'0 0.0
2017-Aug-19 00:00N 33°43' W 118°16'0 0.0
2017-Aug-18 23:30N 33°43' W 118°16'0 0.0
2017-Aug-18 23:00N 33°43' W 118°16'0 0.0
2017-Aug-18 22:30N 33°43' W 118°16'0 0.0
2017-Aug-18 22:00N 33°43' W 118°16'0 0.0
2017-Aug-18 21:30N 33°43' W 118°16'0 0.0
2017-Aug-18 21:00N 33°43' W 118°16'0 0.0
2017-Aug-18 20:30N 33°43' W 118°16'0 0.0
2017-Aug-18 20:00N 33°43' W 118°16'0 0.0
2017-Aug-18 19:30N 33°43' W 118°16'0 0.0
2017-Aug-18 19:00N 33°43' W 118°16'0 0.0
2017-Aug-18 18:30N 33°43' W 118°16'0 0.0
2017-Aug-18 18:00N 33°43' W 118°16'0 0.0
2017-Aug-18 17:30N 33°43' W 118°16'0 0.0
2017-Aug-18 17:00N 33°43' W 118°16'0 0.0
2017-Aug-18 16:30N 33°43' W 118°16'0 0.0
2017-Aug-18 16:00N 33°43' W 118°16'0 0.0
2017-Aug-18 15:30N 33°43' W 118°16'0 0.0
2017-Aug-18 15:00N 33°43' W 118°16'0 0.0
2017-Aug-18 14:27N 33°43' W 118°16'0 0.0
2017-Aug-18 13:30N 33°43' W 118°16'0 0.0
2017-Aug-18 13:01N 33°43' W 118°16'3 6.6
2017-Aug-18 12:30N 33°44' W 118°12'3 6.4
2017-Aug-18 12:00N 33°43' W 118°16'0 0.0
2017-Aug-18 11:30N 33°43' W 118°16'0 0.0
2017-Aug-18 11:01N 33°43' W 118°16'0 0.0
2017-Aug-18 10:30N 33°43' W 118°16'0 0.0
2017-Aug-18 09:56N 33°43' W 118°16'0 0.0
2017-Aug-18 09:30N 33°43' W 118°16'0 0.0
2017-Aug-18 09:00N 33°43' W 118°16'0 0.0
2017-Aug-18 08:31N 33°43' W 118°16'0 0.0
2017-Aug-18 08:01N 33°43' W 118°16'0 0.0
2017-Aug-18 07:30N 33°43' W 118°16'0 0.0
2017-Aug-18 06:59N 33°43' W 118°16'0 0.0
2017-Aug-18 06:31N 33°43' W 118°16'0 0.0
2017-Aug-18 06:01N 33°43' W 118°16'0 0.0
2017-Aug-18 05:30N 33°43' W 118°16'3 5.3
2017-Aug-18 05:01N 33°41' W 118°14'3 5.1
2017-Aug-18 04:30N 33°43' W 118°16'0 0.0
2017-Aug-18 04:00N 33°43' W 118°16'0 0.0
2017-Aug-18 03:30N 33°43' W 118°16'2 3.5
2017-Aug-18 03:01N 33°42' W 118°15'2 3.4
2017-Aug-18 02:30N 33°43' W 118°16'0 0.0
2017-Aug-18 02:00N 33°43' W 118°16'0 0.0
2017-Aug-18 01:30N 33°43' W 118°16'1 1.5
2017-Aug-18 01:00N 33°43' W 118°16'1 1.1
2017-Aug-18 00:30N 33°43' W 118°15'1 1.3
2017-Aug-18 00:00N 33°43' W 118°16'1 1.2
2017-Aug-17 23:30N 33°43' W 118°16'1 1.7
2017-Aug-17 23:00N 33°43' W 118°15'1 1.7
2017-Aug-17 22:30N 33°43' W 118°16'2 4.6
2017-Aug-17 22:01N 33°41' W 118°15'2 4.5
2017-Aug-17 21:30N 33°43' W 118°16'0 0.0
2017-Aug-17 21:00N 33°43' W 118°16'0 0.0
2017-Aug-17 20:30N 33°43' W 118°16'0 0.2
2017-Aug-17 20:00N 33°43' W 118°16'1 1.3
2017-Aug-17 19:30N 33°44' W 118°16'1 1.5
2017-Aug-17 18:59N 33°43' W 118°16'0 0.0
2017-Aug-17 18:30N 33°43' W 118°16'0 0.0
2017-Aug-17 18:00N 33°43' W 118°16'0 0.0
2017-Aug-17 17:30N 33°43' W 118°16'0 0.0
2017-Aug-17 17:00N 33°43' W 118°16'0 0.0
2017-Aug-17 16:30N 33°43' W 118°16'0 0.0
2017-Aug-17 16:00N 33°43' W 118°16'0 0.0
2017-Aug-17 15:30N 33°43' W 118°16'0 0.0
2017-Aug-17 15:00N 33°43' W 118°16'0 0.0
2017-Aug-17 14:30N 33°43' W 118°16'0 0.0
2017-Aug-17 13:59N 33°43' W 118°16'0 0.7
2017-Aug-17 13:31N 33°43' W 118°16'0 0.5
2017-Aug-17 12:59N 33°43' W 118°16'1 1.2
2017-Aug-17 12:30N 33°43' W 118°16'0 0.0
2017-Aug-17 12:00N 33°43' W 118°16'0 0.0
2017-Aug-17 11:27N 33°43' W 118°16'0 0.0
2017-Aug-17 11:00N 33°43' W 118°16'0 0.0
2017-Aug-17 10:30N 33°43' W 118°16'0 0.0
2017-Aug-17 10:00N 33°43' W 118°16'0 0.0
2017-Aug-17 09:30N 33°43' W 118°16'0 0.0
2017-Aug-17 08:59N 33°43' W 118°16'0 0.0
2017-Aug-17 08:30N 33°43' W 118°16'0 0.0
2017-Aug-17 08:00N 33°43' W 118°16'0 0.0
2017-Aug-17 07:29N 33°43' W 118°16'0 0.0
2017-Aug-17 03:30N 33°43' W 118°16'0 0.0
2017-Aug-17 03:00N 33°43' W 118°16'0 0.0
2017-Aug-17 02:30N 33°43' W 118°16'0 0.0
2017-Aug-17 02:00N 33°43' W 118°16'0 0.0
2017-Aug-17 01:30N 33°43' W 118°16'0 0.0
2017-Aug-17 01:00N 33°43' W 118°16'0 0.0
2017-Aug-17 00:30N 33°43' W 118°16'0 0.0
2017-Aug-17 00:00N 33°43' W 118°16'0 0.0
2017-Aug-16 23:30N 33°43' W 118°16'0 0.0
2017-Aug-16 23:00N 33°43' W 118°16'0 0.0
2017-Aug-16 22:30N 33°43' W 118°16'0 0.0
2017-Aug-16 22:00N 33°43' W 118°16'3 6.5
2017-Aug-16 21:31N 33°40' W 118°14'3 6.4
2017-Aug-16 21:00N 33°43' W 118°16'0 0.3
2017-Aug-16 20:31N 33°43' W 118°16'0 0.3
2017-Aug-16 20:00N 33°43' W 118°16'0 0.0
2017-Aug-16 19:30N 33°43' W 118°16'0 0.0
2017-Aug-16 19:00N 33°43' W 118°16'0 0.0
2017-Aug-16 18:30N 33°43' W 118°16'0 0.0
2017-Aug-16 18:00N 33°43' W 118°16'0 0.0
2017-Aug-16 17:29N 33°43' W 118°16'0 0.0
2017-Aug-16 17:00N 33°43' W 118°16'0 0.0
2017-Aug-16 16:30N 33°43' W 118°16'0 0.0
2017-Aug-16 15:59N 33°43' W 118°16'1 1.0
2017-Aug-16 15:27N 33°44' W 118°16'1 1.0
2017-Aug-16 14:58N 33°43' W 118°16'0 0.0
2017-Aug-16 14:29N 33°43' W 118°16'0 0.0
2017-Aug-16 13:59N 33°43' W 118°16'0 0.0
2017-Aug-16 13:30N 33°43' W 118°16'1 1.1
2017-Aug-16 13:00N 33°43' W 118°16'0 0.3
2017-Aug-16 12:30N 33°43' W 118°16'0 0.2
2017-Aug-16 12:00N 33°43' W 118°16'1 1.2
2017-Aug-16 11:30N 33°43' W 118°16'0 0.0
2017-Aug-16 11:00N 33°43' W 118°16'0 0.0
2017-Aug-16 10:30N 33°43' W 118°16'1 2.1
2017-Aug-16 10:00N 33°43' W 118°15'1 2.1
2017-Aug-16 09:30N 33°43' W 118°16'0 0.0
2017-Aug-16 08:39N 33°43' W 118°16'0 0.0
2017-Aug-16 05:33N 33°43' W 118°16'0 0.0
2017-Aug-16 05:31N 33°43' W 118°16'0 0.0
2017-Aug-16 05:00N 33°43' W 118°16'0 0.0
2017-Aug-16 04:30N 33°43' W 118°16'0 0.0
2017-Aug-16 04:00N 33°43' W 118°16'0 0.0
2017-Aug-16 03:30N 33°43' W 118°16'0 0.0
2017-Aug-16 03:01N 33°43' W 118°16'0 0.0
2017-Aug-16 02:30N 33°43' W 118°16'0 0.0
2017-Aug-16 02:00N 33°43' W 118°16'0 0.0
2017-Aug-16 01:31N 33°43' W 118°16'0 0.0
2017-Aug-16 01:01N 33°43' W 118°16'0 0.0
2017-Aug-16 00:31N 33°43' W 118°16'0 0.0
2017-Aug-16 00:01N 33°43' W 118°16'0 0.0
2017-Aug-15 23:31N 33°43' W 118°16'0 0.0
2017-Aug-15 22:59N 33°43' W 118°16'0 0.0
2017-Aug-15 22:31N 33°43' W 118°16'0 0.0
2017-Aug-15 22:01N 33°43' W 118°16'0 0.0
2017-Aug-15 21:30N 33°43' W 118°16'0 0.0
2017-Aug-15 21:00N 33°43' W 118°16'0 0.0
2017-Aug-15 20:30N 33°43' W 118°16'0 0.0
2017-Aug-15 20:01N 33°43' W 118°16'0 0.0
2017-Aug-15 19:30N 33°43' W 118°16'0 0.0
2017-Aug-15 19:01N 33°43' W 118°16'0 0.0
2017-Aug-15 18:30N 33°43' W 118°16'0 0.0
2017-Aug-15 18:00N 33°43' W 118°16'0 0.0
2017-Aug-15 17:30N 33°43' W 118°16'0 0.0
2017-Aug-15 17:01N 33°43' W 118°16'0 0.0
2017-Aug-15 16:31N 33°43' W 118°16'0 0.0
2017-Aug-15 16:01N 33°43' W 118°16'0 0.0
2017-Aug-15 15:27N 33°43' W 118°16'0 0.0
2017-Aug-15 15:01N 33°43' W 118°16'0 0.0
2017-Aug-15 14:15N 33°43' W 118°16'0 0.0
2017-Aug-15 14:00N 33°43' W 118°16'0 0.0
2017-Aug-15 13:30N 33°43' W 118°16'0 0.0
2017-Aug-15 12:59N 33°43' W 118°16'0 0.2
2017-Aug-15 12:30N 33°43' W 118°16'0 0.2
2017-Aug-15 12:00N 33°43' W 118°16'1 2.2
2017-Aug-15 11:30N 33°43' W 118°15'1 2.1
2017-Aug-15 10:59N 33°43' W 118°16'0 0.0
2017-Aug-15 10:29N 33°43' W 118°16'0 0.0
2017-Aug-15 10:00N 33°43' W 118°16'0 0.0
2017-Aug-15 09:30N 33°43' W 118°16'0 0.0
2017-Aug-15 08:59N 33°43' W 118°16'0 0.0
2017-Aug-15 08:29N 33°43' W 118°16'0 0.1
2017-Aug-15 07:29N 33°43' W 118°16'0 0.0
2017-Aug-15 03:56N 33°43' W 118°16'0 0.0
2017-Aug-15 03:04N 33°43' W 118°16'0 0.0
2017-Aug-15 03:00N 33°43' W 118°16'0 0.0
2017-Aug-15 02:29N 33°43' W 118°16'0 0.0
2017-Aug-15 01:52N 33°43' W 118°16'0 0.0
2017-Aug-15 01:30N 33°43' W 118°16'2 3.1
2017-Aug-15 01:00N 33°42' W 118°15'2 3.0
2017-Aug-15 00:30N 33°43' W 118°16'0 0.0
2017-Aug-15 00:00N 33°43' W 118°16'0 0.0
2017-Aug-14 23:30N 33°43' W 118°16'0 0.0
2017-Aug-14 23:00N 33°43' W 118°16'0 0.0
2017-Aug-14 22:30N 33°43' W 118°16'0 0.0
2017-Aug-14 22:00N 33°43' W 118°16'0 0.0
2017-Aug-14 21:30N 33°43' W 118°16'0 0.0
2017-Aug-14 21:00N 33°43' W 118°16'1 2.8
2017-Aug-14 20:30N 33°42' W 118°15'1 2.8
2017-Aug-14 20:00N 33°43' W 118°16'1 1.5
2017-Aug-14 19:30N 33°43' W 118°16'1 1.4
2017-Aug-14 19:00N 33°43' W 118°16'0 0.0
2017-Aug-14 18:30N 33°43' W 118°16'0 0.0
2017-Aug-14 18:00N 33°43' W 118°16'0 0.0
2017-Aug-14 17:30N 33°43' W 118°16'0 0.0
2017-Aug-14 17:00N 33°43' W 118°16'0 0.0
2017-Aug-14 16:30N 33°43' W 118°16'0 0.0
2017-Aug-14 16:00N 33°43' W 118°16'0 0.0
2017-Aug-14 15:29N 33°43' W 118°16'0 0.0
2017-Aug-14 15:00N 33°43' W 118°16'0 0.0
2017-Aug-14 14:30N 33°43' W 118°16'0 0.0
2017-Aug-14 13:59N 33°43' W 118°16'2 4.4
2017-Aug-14 13:30N 33°43' W 118°14'2 4.2
2017-Aug-14 13:00N 33°43' W 118°16'0 0.0
2017-Aug-14 12:29N 33°43' W 118°16'0 0.0
2017-Aug-14 12:00N 33°43' W 118°16'0 0.0
2017-Aug-14 11:30N 33°43' W 118°16'0 0.0
2017-Aug-14 11:00N 33°43' W 118°16'0 0.5
2017-Aug-14 10:30N 33°43' W 118°16'0 0.5
2017-Aug-14 10:00N 33°43' W 118°16'0 0.2
2017-Aug-14 09:30N 33°43' W 118°16'0 0.2
2017-Aug-14 09:01N 33°43' W 118°16'  
Track history (hours):
 
Tides and Currents Weather Stations Pressure Air Temp Water Temp Dewpoint Dewpoint Depression Visibility Wind Speed Wind Dir Waves Ship Positions

Stephen M. White

Owner: LOS ANGELES, CITY OF, SAN PEDRO, CA. More information available from US FCC via Universal Licensing System and Coast Guard Vessel Documentation Center.

Last reported at 2017-Aug-24 08:30 UTC. Time now 2017-Aug-24 08:43 UTC.
Position N 33°43' W 118°16'.

Length 13 m.

Type: Other ship. MMSI: 367049470.

Date/timePositionNaut miles runAvg speedWind from/ knotsBaromVisibWave heightAir tempDewpointWater temp
2017-Aug-24 08:30N 33°43' W 118°16'0 0.0
2017-Aug-24 07:59N 33°43' W 118°16'0 0.0
2017-Aug-24 07:30N 33°43' W 118°16'0 0.0
2017-Aug-24 06:48N 33°43' W 118°16'0 0.0
2017-Aug-24 06:05N 33°43' W 118°16'0 0.0
2017-Aug-24 05:58N 33°43' W 118°16'0 0.0
2017-Aug-24 05:30N 33°43' W 118°16'0 0.0
2017-Aug-24 04:50N 33°43' W 118°16'0 0.0
2017-Aug-24 04:27N 33°43' W 118°16'0 0.0
2017-Aug-24 03:54N 33°43' W 118°16'0 0.0
2017-Aug-24 03:30N 33°43' W 118°16'0 0.0
2017-Aug-24 03:00N 33°43' W 118°16'0 0.0
2017-Aug-24 02:30N 33°43' W 118°16'0 0.0
2017-Aug-24 01:57N 33°43' W 118°16'0 0.0
2017-Aug-24 01:29N 33°43' W 118°16'2 4.5
2017-Aug-24 01:00N 33°42' W 118°14'2 3.4
2017-Aug-24 00:30N 33°43' W 118°16'0 0.8
2017-Aug-24 00:00N 33°43' W 118°16'1 2.0
2017-Aug-23 23:30N 33°43' W 118°15'1 2.0
2017-Aug-23 23:00N 33°43' W 118°16'0 0.0
2017-Aug-23 22:30N 33°43' W 118°16'0 0.0
2017-Aug-23 22:00N 33°43' W 118°16'0 0.0
2017-Aug-23 21:30N 33°43' W 118°16'0 0.0
2017-Aug-23 20:58N 33°43' W 118°16'4 7.9
2017-Aug-23 20:30N 33°43' W 118°12'3 5.0
2017-Aug-23 20:00N 33°43' W 118°15'1 2.7
2017-Aug-23 19:30N 33°43' W 118°16'0 0.0
2017-Aug-23 19:00N 33°43' W 118°16'0 0.0
2017-Aug-23 18:30N 33°43' W 118°16'0 0.0
2017-Aug-23 18:01N 33°43' W 118°16'0 0.0
2017-Aug-23 17:30N 33°43' W 118°16'0 0.0
2017-Aug-23 17:01N 33°43' W 118°16'0 0.0
2017-Aug-23 16:29N 33°43' W 118°16'0 0.0
2017-Aug-23 16:01N 33°43' W 118°16'1 1.1
2017-Aug-23 15:30N 33°44' W 118°17'1 1.1
2017-Aug-23 15:00N 33°43' W 118°16'0 0.0
2017-Aug-23 14:30N 33°43' W 118°16'0 0.0
2017-Aug-23 12:38N 33°43' W 118°16'0 0.0
2017-Aug-23 12:30N 33°43' W 118°16'0 0.0
2017-Aug-23 11:56N 33°43' W 118°16'0 0.0
2017-Aug-23 11:29N 33°43' W 118°16'0 0.0
2017-Aug-23 10:54N 33°43' W 118°16'0 0.0
2017-Aug-23 10:30N 33°43' W 118°16'0 0.0
2017-Aug-23 09:47N 33°43' W 118°16'0 0.0
2017-Aug-23 09:31N 33°43' W 118°16'0 0.0
2017-Aug-23 09:00N 33°43' W 118°16'1 1.0
2017-Aug-23 08:24N 33°43' W 118°16'0 0.1
2017-Aug-23 07:56N 33°43' W 118°16'1 1.1
2017-Aug-23 07:24N 33°43' W 118°16'0 0.0
2017-Aug-23 07:00N 33°43' W 118°16'0 0.0
2017-Aug-23 06:30N 33°43' W 118°16'0 0.0
2017-Aug-23 05:59N 33°43' W 118°16'0 0.0
2017-Aug-23 05:24N 33°43' W 118°16'0 0.0
2017-Aug-23 05:00N 33°43' W 118°16'2 3.3
2017-Aug-23 04:30N 33°42' W 118°15'0 0.5
2017-Aug-23 04:01N 33°42' W 118°15'2 3.8
2017-Aug-23 03:30N 33°43' W 118°16'1 2.9
2017-Aug-23 03:00N 33°42' W 118°15'1 2.8
2017-Aug-23 02:30N 33°43' W 118°16'0 0.0
2017-Aug-23 02:00N 33°43' W 118°16'0 0.0
2017-Aug-23 01:30N 33°43' W 118°16'0 0.0
2017-Aug-23 01:01N 33°43' W 118°16'0 0.0
2017-Aug-23 00:31N 33°43' W 118°16'0 0.9
2017-Aug-23 00:00N 33°43' W 118°16'0 0.9
2017-Aug-22 23:30N 33°43' W 118°16'0 0.0
2017-Aug-22 23:00N 33°43' W 118°16'0 0.0
2017-Aug-22 22:30N 33°43' W 118°16'1 1.8
2017-Aug-22 22:00N 33°43' W 118°15'1 1.7
2017-Aug-22 21:29N 33°43' W 118°16'0 1.0
2017-Aug-22 21:00N 33°43' W 118°16'0 0.9
2017-Aug-22 20:28N 33°43' W 118°16'0 0.0
2017-Aug-22 20:00N 33°43' W 118°16'0 0.0
2017-Aug-22 19:30N 33°43' W 118°16'0 0.0
2017-Aug-22 19:00N 33°43' W 118°16'0 0.0
2017-Aug-22 18:30N 33°43' W 118°16'0 0.0
2017-Aug-22 18:00N 33°43' W 118°16'0 0.0
2017-Aug-22 17:30N 33°43' W 118°16'0 0.0
2017-Aug-22 17:00N 33°43' W 118°16'0 0.0
2017-Aug-22 16:30N 33°43' W 118°16'0 0.0
2017-Aug-22 16:00N 33°43' W 118°16'0 0.0
2017-Aug-22 15:30N 33°43' W 118°16'0 0.0
2017-Aug-22 14:59N 33°43' W 118°16'0 0.0
2017-Aug-22 14:30N 33°43' W 118°16'0 0.0
2017-Aug-22 13:48N 33°43' W 118°16'0 0.0
2017-Aug-22 13:26N 33°43' W 118°16'0 0.0
2017-Aug-22 12:56N 33°43' W 118°16'0 0.0
2017-Aug-22 12:04N 33°43' W 118°16'0 0.0
2017-Aug-22 11:42N 33°43' W 118°16'419.0
2017-Aug-22 11:30N 33°40' W 118°14'3 5.6
2017-Aug-22 10:54N 33°43' W 118°16'0 0.2
2017-Aug-22 10:07N 33°43' W 118°16'0 0.0
2017-Aug-22 10:00N 33°43' W 118°16'0 0.0
2017-Aug-22 09:30N 33°43' W 118°16'3 5.0
2017-Aug-22 09:00N 33°41' W 118°15'3 5.0
2017-Aug-22 08:30N 33°43' W 118°16'0 0.0
2017-Aug-22 08:00N 33°43' W 118°16'0 0.0
2017-Aug-22 07:30N 33°43' W 118°16'2 3.5
2017-Aug-22 06:56N 33°42' W 118°15'2 1.3
2017-Aug-22 05:23N 33°43' W 118°16'0 0.8
2017-Aug-22 05:00N 33°43' W 118°16'0 0.6
2017-Aug-22 04:30N 33°43' W 118°16'0 0.0
2017-Aug-22 04:00N 33°43' W 118°16'0 0.0
2017-Aug-22 03:30N 33°43' W 118°16'0 0.0
2017-Aug-22 03:00N 33°43' W 118°16'0 0.0
2017-Aug-22 02:30N 33°43' W 118°16'0 0.0
2017-Aug-22 02:00N 33°43' W 118°16'2 4.7
2017-Aug-22 01:30N 33°42' W 118°14'2 4.7
2017-Aug-22 01:00N 33°43' W 118°16'1 2.4
2017-Aug-22 00:31N 33°43' W 118°15'1 2.3
2017-Aug-22 00:00N 33°43' W 118°16'2 3.7
2017-Aug-21 23:30N 33°42' W 118°15'2 3.7
2017-Aug-21 23:00N 33°43' W 118°16'0 0.0
2017-Aug-21 22:30N 33°43' W 118°16'0 0.0
2017-Aug-21 22:00N 33°43' W 118°16'2 3.1
2017-Aug-21 21:30N 33°42' W 118°15'2 3.1
2017-Aug-21 21:00N 33°43' W 118°16'0 0.0
2017-Aug-21 20:27N 33°43' W 118°16'0 0.0
2017-Aug-21 20:00N 33°43' W 118°16'0 0.0
2017-Aug-21 19:29N 33°43' W 118°16'0 0.0
2017-Aug-21 19:00N 33°43' W 118°16'0 0.0
2017-Aug-21 18:30N 33°43' W 118°16'0 0.0
2017-Aug-21 18:00N 33°43' W 118°16'1 1.6
2017-Aug-21 17:31N 33°43' W 118°15'1 1.5
2017-Aug-21 17:00N 33°43' W 118°16'0 0.0
2017-Aug-21 16:30N 33°43' W 118°16'0 0.0
2017-Aug-21 15:58N 33°43' W 118°16'0 0.0
2017-Aug-21 15:21N 33°43' W 118°16'0 0.0
2017-Aug-21 14:59N 33°43' W 118°16'0 0.0
2017-Aug-21 14:30N 33°43' W 118°16'0 0.0
2017-Aug-21 13:59N 33°43' W 118°16'0 0.0
2017-Aug-21 13:16N 33°43' W 118°16'0 0.0
2017-Aug-21 13:00N 33°43' W 118°16'0 0.0
2017-Aug-21 12:24N 33°43' W 118°16'0 0.0
2017-Aug-21 12:00N 33°43' W 118°16'0 0.0
2017-Aug-21 11:30N 33°43' W 118°16'0 0.0
2017-Aug-21 10:56N 33°43' W 118°16'0 0.0
2017-Aug-21 10:25N 33°43' W 118°16'0 0.0
2017-Aug-21 09:53N 33°43' W 118°16'0 0.0
2017-Aug-21 09:29N 33°43' W 118°16'0 0.0
2017-Aug-21 08:59N 33°43' W 118°16'0 0.0
2017-Aug-21 08:30N 33°43' W 118°16'0 0.0
2017-Aug-21 08:00N 33°43' W 118°16'0 0.0
2017-Aug-21 07:30N 33°43' W 118°16'0 0.0
2017-Aug-21 05:42N 33°43' W 118°16'0 0.0
2017-Aug-21 04:07N 33°43' W 118°16'0 0.0
2017-Aug-21 03:18N 33°43' W 118°16'0 0.7
2017-Aug-21 03:00N 33°43' W 118°16'0 0.4
2017-Aug-21 02:28N 33°43' W 118°16'0 0.0
2017-Aug-21 02:00N 33°43' W 118°16'0 0.0
2017-Aug-21 01:30N 33°43' W 118°16'0 0.0
2017-Aug-21 01:00N 33°43' W 118°16'0 0.0
2017-Aug-21 00:30N 33°43' W 118°16'0 0.0
2017-Aug-21 00:00N 33°43' W 118°16'0 0.0
2017-Aug-20 23:30N 33°43' W 118°16'0 0.0
2017-Aug-20 23:00N 33°43' W 118°16'0 0.0
2017-Aug-20 22:30N 33°43' W 118°16'0 0.0
2017-Aug-20 21:49N 33°43' W 118°16'0 0.0
2017-Aug-20 21:30N 33°43' W 118°16'0 0.0
2017-Aug-20 20:58N 33°43' W 118°16'0 0.0
2017-Aug-20 20:28N 33°43' W 118°16'0 0.0
2017-Aug-20 20:00N 33°43' W 118°16'0 0.0
2017-Aug-20 19:27N 33°43' W 118°16'0 0.0
2017-Aug-20 19:00N 33°43' W 118°16'0 0.0
2017-Aug-20 18:30N 33°43' W 118°16'0 0.0
2017-Aug-20 18:00N 33°43' W 118°16'0 0.0
2017-Aug-20 17:30N 33°43' W 118°16'0 0.0
2017-Aug-20 17:00N 33°43' W 118°16'0 0.0
2017-Aug-20 16:30N 33°43' W 118°16'0 0.0
2017-Aug-20 16:00N 33°43' W 118°16'0 0.0
2017-Aug-20 15:30N 33°43' W 118°16'0 0.0
2017-Aug-20 15:00N 33°43' W 118°16'0 0.0
2017-Aug-20 14:06N 33°43' W 118°16'0 1.3
2017-Aug-20 13:51N 33°44' W 118°16'0 0.5
2017-Aug-20 13:14N 33°43' W 118°16'1 4.3
2017-Aug-20 12:55N 33°42' W 118°15'1 0.9
2017-Aug-20 11:24N 33°43' W 118°16'0 0.2
2017-Aug-20 10:59N 33°43' W 118°16'0 0.2
2017-Aug-20 10:30N 33°43' W 118°16'0 0.2
2017-Aug-20 09:57N 33°43' W 118°16'0 0.3
2017-Aug-20 09:27N 33°43' W 118°16'0 0.0
2017-Aug-20 09:00N 33°43' W 118°16'0 0.0
2017-Aug-20 08:29N 33°43' W 118°16'0 0.0
2017-Aug-20 07:58N 33°43' W 118°16'0 0.0
2017-Aug-20 07:29N 33°43' W 118°16'0 0.0
2017-Aug-20 06:08N 33°43' W 118°16'0 0.0
2017-Aug-20 06:00N 33°43' W 118°16'0 0.0
2017-Aug-20 05:18N 33°43' W 118°16'0 0.0
2017-Aug-20 05:00N 33°43' W 118°16'0 0.0
2017-Aug-20 04:28N 33°43' W 118°16'0 0.0
2017-Aug-20 04:00N 33°43' W 118°16'0 0.0
2017-Aug-20 03:29N 33°43' W 118°16'0 0.0
2017-Aug-20 03:00N 33°43' W 118°16'0 0.0
2017-Aug-20 02:30N 33°43' W 118°16'0 0.0
2017-Aug-20 02:00N 33°43' W 118°16'0 0.0
2017-Aug-20 01:28N 33°43' W 118°16'0 0.0
2017-Aug-20 01:00N 33°43' W 118°16'0 0.0
2017-Aug-20 00:30N 33°43' W 118°16'0 0.0
2017-Aug-20 00:00N 33°43' W 118°16'0 0.0
2017-Aug-19 23:30N 33°43' W 118°16'0 0.0
2017-Aug-19 23:00N 33°43' W 118°16'0 0.0
2017-Aug-19 22:30N 33°43' W 118°16'0 0.0
2017-Aug-19 22:00N 33°43' W 118°16'0 0.0
2017-Aug-19 21:30N 33°43' W 118°16'0 0.0
2017-Aug-19 21:00N 33°43' W 118°16'4 6.7
2017-Aug-19 20:27N 33°42' W 118°12'4 7.3
2017-Aug-19 19:56N 33°43' W 118°16'0 0.3
2017-Aug-19 19:30N 33°43' W 118°16'3 5.2
2017-Aug-19 18:59N 33°41' W 118°14'3 5.3
2017-Aug-19 18:30N 33°43' W 118°16'0 0.3
2017-Aug-19 18:00N 33°43' W 118°16'0 0.0
2017-Aug-19 17:29N 33°43' W 118°16'0 0.0
2017-Aug-19 17:00N 33°43' W 118°16'0 0.0
2017-Aug-19 16:30N 33°43' W 118°16'0 0.0
2017-Aug-19 16:00N 33°43' W 118°16'0 0.0
2017-Aug-19 15:30N 33°43' W 118°16'0 0.0
2017-Aug-19 14:58N 33°43' W 118°16'0 0.0
2017-Aug-19 14:00N 33°43' W 118°16'0 0.0
2017-Aug-19 13:28N 33°43' W 118°16'1 3.3
2017-Aug-19 13:01N 33°42' W 118°15'1 2.8
2017-Aug-19 12:29N 33°43' W 118°16'0 0.0
2017-Aug-19 11:59N 33°43' W 118°16'0 0.0
2017-Aug-19 11:30N 33°43' W 118°16'0 0.0
2017-Aug-19 11:01N 33°43' W 118°16'0 0.0
2017-Aug-19 10:30N 33°43' W 118°16'1 1.2
2017-Aug-19 10:00N 33°43' W 118°16'1 1.2
2017-Aug-19 09:29N 33°43' W 118°16'0 0.0
2017-Aug-19 08:58N 33°43' W 118°16'0 0.0
2017-Aug-19 08:30N 33°43' W 118°16'0 0.0
2017-Aug-19 07:49N 33°43' W 118°16'0 0.0
2017-Aug-19 07:31N 33°43' W 118°16'0 0.0
2017-Aug-19 07:00N 33°43' W 118°16'0 0.0
2017-Aug-19 06:30N 33°43' W 118°16'0 0.0
2017-Aug-19 06:00N 33°43' W 118°16'0 0.0
2017-Aug-19 05:31N 33°43' W 118°16'0 0.0
2017-Aug-19 05:01N 33°43' W 118°16'0 0.0
2017-Aug-19 04:31N 33°43' W 118°16'0 0.0
2017-Aug-19 04:01N 33°43' W 118°16'0 0.0
2017-Aug-19 03:31N 33°43' W 118°16'0 0.0
2017-Aug-19 03:01N 33°43' W 118°16'0 0.0
2017-Aug-19 02:31N 33°43' W 118°16'0 0.0
2017-Aug-19 02:00N 33°43' W 118°16'0 0.0
2017-Aug-19 01:30N 33°43' W 118°16'0 0.0
2017-Aug-19 01:00N 33°43' W 118°16'0 0.0
2017-Aug-19 00:30N 33°43' W 118°16'0 0.0
2017-Aug-19 00:00N 33°43' W 118°16'0 0.0
2017-Aug-18 23:30N 33°43' W 118°16'0 0.0
2017-Aug-18 23:00N 33°43' W 118°16'0 0.0
2017-Aug-18 22:30N 33°43' W 118°16'0 0.0
2017-Aug-18 22:00N 33°43' W 118°16'0 0.0
2017-Aug-18 21:30N 33°43' W 118°16'0 0.0
2017-Aug-18 21:00N 33°43' W 118°16'0 0.0
2017-Aug-18 20:30N 33°43' W 118°16'0 0.0
2017-Aug-18 20:00N 33°43' W 118°16'0 0.0
2017-Aug-18 19:30N 33°43' W 118°16'0 0.0
2017-Aug-18 19:00N 33°43' W 118°16'0 0.0
2017-Aug-18 18:30N 33°43' W 118°16'0 0.0
2017-Aug-18 18:00N 33°43' W 118°16'0 0.0
2017-Aug-18 17:30N 33°43' W 118°16'0 0.0
2017-Aug-18 17:00N 33°43' W 118°16'0 0.0
2017-Aug-18 16:30N 33°43' W 118°16'0 0.0
2017-Aug-18 16:00N 33°43' W 118°16'0 0.0
2017-Aug-18 15:30N 33°43' W 118°16'0 0.0
2017-Aug-18 15:00N 33°43' W 118°16'0 0.0
2017-Aug-18 14:27N 33°43' W 118°16'0 0.0
2017-Aug-18 13:30N 33°43' W 118°16'0 0.0
2017-Aug-18 13:01N 33°43' W 118°16'3 6.6
2017-Aug-18 12:30N 33°44' W 118°12'3 6.4
2017-Aug-18 12:00N 33°43' W 118°16'0 0.0
2017-Aug-18 11:30N 33°43' W 118°16'0 0.0
2017-Aug-18 11:01N 33°43' W 118°16'0 0.0
2017-Aug-18 10:30N 33°43' W 118°16'0 0.0
2017-Aug-18 09:56N 33°43' W 118°16'0 0.0
2017-Aug-18 09:30N 33°43' W 118°16'0 0.0
2017-Aug-18 09:00N 33°43' W 118°16'0 0.0
2017-Aug-18 08:31N 33°43' W 118°16'0 0.0
2017-Aug-18 08:01N 33°43' W 118°16'0 0.0
2017-Aug-18 07:30N 33°43' W 118°16'0 0.0
2017-Aug-18 06:59N 33°43' W 118°16'0 0.0
2017-Aug-18 06:31N 33°43' W 118°16'0 0.0
2017-Aug-18 06:01N 33°43' W 118°16'0 0.0
2017-Aug-18 05:30N 33°43' W 118°16'3 5.3
2017-Aug-18 05:01N 33°41' W 118°14'3 5.1
2017-Aug-18 04:30N 33°43' W 118°16'0 0.0
2017-Aug-18 04:00N 33°43' W 118°16'0 0.0
2017-Aug-18 03:30N 33°43' W 118°16'2 3.5
2017-Aug-18 03:01N 33°42' W 118°15'2 3.4
2017-Aug-18 02:30N 33°43' W 118°16'0 0.0
2017-Aug-18 02:00N 33°43' W 118°16'0 0.0
2017-Aug-18 01:30N 33°43' W 118°16'1 1.5
2017-Aug-18 01:00N 33°43' W 118°16'1 1.1
2017-Aug-18 00:30N 33°43' W 118°15'1 1.3
2017-Aug-18 00:00N 33°43' W 118°16'1 1.2
2017-Aug-17 23:30N 33°43' W 118°16'1 1.7
2017-Aug-17 23:00N 33°43' W 118°15'1 1.7
2017-Aug-17 22:30N 33°43' W 118°16'2 4.6
2017-Aug-17 22:01N 33°41' W 118°15'2 4.5
2017-Aug-17 21:30N 33°43' W 118°16'0 0.0
2017-Aug-17 21:00N 33°43' W 118°16'0 0.0
2017-Aug-17 20:30N 33°43' W 118°16'0 0.2
2017-Aug-17 20:00N 33°43' W 118°16'1 1.3
2017-Aug-17 19:30N 33°44' W 118°16'1 1.5
2017-Aug-17 18:59N 33°43' W 118°16'0 0.0
2017-Aug-17 18:30N 33°43' W 118°16'0 0.0
2017-Aug-17 18:00N 33°43' W 118°16'0 0.0
2017-Aug-17 17:30N 33°43' W 118°16'0 0.0
2017-Aug-17 17:00N 33°43' W 118°16'0 0.0
2017-Aug-17 16:30N 33°43' W 118°16'0 0.0
2017-Aug-17 16:00N 33°43' W 118°16'0 0.0
2017-Aug-17 15:30N 33°43' W 118°16'0 0.0
2017-Aug-17 15:00N 33°43' W 118°16'0 0.0
2017-Aug-17 14:30N 33°43' W 118°16'0 0.0
2017-Aug-17 13:59N 33°43' W 118°16'0 0.7
2017-Aug-17 13:31N 33°43' W 118°16'0 0.5
2017-Aug-17 12:59N 33°43' W 118°16'1 1.2
2017-Aug-17 12:30N 33°43' W 118°16'0 0.0
2017-Aug-17 12:00N 33°43' W 118°16'0 0.0
2017-Aug-17 11:27N 33°43' W 118°16'0 0.0
2017-Aug-17 11:00N 33°43' W 118°16'0 0.0
2017-Aug-17 10:30N 33°43' W 118°16'0 0.0
2017-Aug-17 10:00N 33°43' W 118°16'0 0.0
2017-Aug-17 09:30N 33°43' W 118°16'0 0.0
2017-Aug-17 08:59N 33°43' W 118°16'0 0.0
2017-Aug-17 08:30N 33°43' W 118°16'0 0.0
2017-Aug-17 08:00N 33°43' W 118°16'0 0.0
2017-Aug-17 07:29N 33°43' W 118°16'0 0.0
2017-Aug-17 03:30N 33°43' W 118°16'0 0.0
2017-Aug-17 03:00N 33°43' W 118°16'0 0.0
2017-Aug-17 02:30N 33°43' W 118°16'0 0.0
2017-Aug-17 02:00N 33°43' W 118°16'0 0.0
2017-Aug-17 01:30N 33°43' W 118°16'0 0.0
2017-Aug-17 01:00N 33°43' W 118°16'0 0.0
2017-Aug-17 00:30N 33°43' W 118°16'0 0.0
2017-Aug-17 00:00N 33°43' W 118°16'0 0.0
2017-Aug-16 23:30N 33°43' W 118°16'0 0.0
2017-Aug-16 23:00N 33°43' W 118°16'0 0.0
2017-Aug-16 22:30N 33°43' W 118°16'0 0.0
2017-Aug-16 22:00N 33°43' W 118°16'3 6.5
2017-Aug-16 21:31N 33°40' W 118°14'3 6.4
2017-Aug-16 21:00N 33°43' W 118°16'0 0.3
2017-Aug-16 20:31N 33°43' W 118°16'0 0.3
2017-Aug-16 20:00N 33°43' W 118°16'0 0.0
2017-Aug-16 19:30N 33°43' W 118°16'0 0.0
2017-Aug-16 19:00N 33°43' W 118°16'0 0.0
2017-Aug-16 18:30N 33°43' W 118°16'0 0.0
2017-Aug-16 18:00N 33°43' W 118°16'0 0.0
2017-Aug-16 17:29N 33°43' W 118°16'0 0.0
2017-Aug-16 17:00N 33°43' W 118°16'0 0.0
2017-Aug-16 16:30N 33°43' W 118°16'0 0.0
2017-Aug-16 15:59N 33°43' W 118°16'1 1.0
2017-Aug-16 15:27N 33°44' W 118°16'1 1.0
2017-Aug-16 14:58N 33°43' W 118°16'0 0.0
2017-Aug-16 14:29N 33°43' W 118°16'0 0.0
2017-Aug-16 13:59N 33°43' W 118°16'0 0.0
2017-Aug-16 13:30N 33°43' W 118°16'1 1.1
2017-Aug-16 13:00N 33°43' W 118°16'0 0.3
2017-Aug-16 12:30N 33°43' W 118°16'0 0.2
2017-Aug-16 12:00N 33°43' W 118°16'1 1.2
2017-Aug-16 11:30N 33°43' W 118°16'0 0.0
2017-Aug-16 11:00N 33°43' W 118°16'0 0.0
2017-Aug-16 10:30N 33°43' W 118°16'1 2.1
2017-Aug-16 10:00N 33°43' W 118°15'1 2.1
2017-Aug-16 09:30N 33°43' W 118°16'0 0.0
2017-Aug-16 08:39N 33°43' W 118°16'0 0.0
2017-Aug-16 05:33N 33°43' W 118°16'0 0.0
2017-Aug-16 05:31N 33°43' W 118°16'0 0.0
2017-Aug-16 05:00N 33°43' W 118°16'0 0.0
2017-Aug-16 04:30N 33°43' W 118°16'0 0.0
2017-Aug-16 04:00N 33°43' W 118°16'0 0.0
2017-Aug-16 03:30N 33°43' W 118°16'0 0.0
2017-Aug-16 03:01N 33°43' W 118°16'0 0.0
2017-Aug-16 02:30N 33°43' W 118°16'0 0.0
2017-Aug-16 02:00N 33°43' W 118°16'0 0.0
2017-Aug-16 01:31N 33°43' W 118°16'0 0.0
2017-Aug-16 01:01N 33°43' W 118°16'0 0.0
2017-Aug-16 00:31N 33°43' W 118°16'0 0.0
2017-Aug-16 00:01N 33°43' W 118°16'0 0.0
2017-Aug-15 23:31N 33°43' W 118°16'0 0.0
2017-Aug-15 22:59N 33°43' W 118°16'0 0.0
2017-Aug-15 22:31N 33°43' W 118°16'0 0.0
2017-Aug-15 22:01N 33°43' W 118°16'0 0.0
2017-Aug-15 21:30N 33°43' W 118°16'0 0.0
2017-Aug-15 21:00N 33°43' W 118°16'0 0.0
2017-Aug-15 20:30N 33°43' W 118°16'0 0.0
2017-Aug-15 20:01N 33°43' W 118°16'0 0.0
2017-Aug-15 19:30N 33°43' W 118°16'0 0.0
2017-Aug-15 19:01N 33°43' W 118°16'0 0.0
2017-Aug-15 18:30N 33°43' W 118°16'0 0.0
2017-Aug-15 18:00N 33°43' W 118°16'0 0.0
2017-Aug-15 17:30N 33°43' W 118°16'0 0.0
2017-Aug-15 17:01N 33°43' W 118°16'0 0.0
2017-Aug-15 16:31N 33°43' W 118°16'0 0.0
2017-Aug-15 16:01N 33°43' W 118°16'0 0.0
2017-Aug-15 15:27N 33°43' W 118°16'0 0.0
2017-Aug-15 15:01N 33°43' W 118°16'0 0.0
2017-Aug-15 14:15N 33°43' W 118°16'0 0.0
2017-Aug-15 14:00N 33°43' W 118°16'0 0.0
2017-Aug-15 13:30N 33°43' W 118°16'0 0.0
2017-Aug-15 12:59N 33°43' W 118°16'0 0.2
2017-Aug-15 12:30N 33°43' W 118°16'0 0.2
2017-Aug-15 12:00N 33°43' W 118°16'1 2.2
2017-Aug-15 11:30N 33°43' W 118°15'1 2.1
2017-Aug-15 10:59N 33°43' W 118°16'0 0.0
2017-Aug-15 10:29N 33°43' W 118°16'0 0.0
2017-Aug-15 10:00N 33°43' W 118°16'0 0.0
2017-Aug-15 09:30N 33°43' W 118°16'0 0.0
2017-Aug-15 08:59N 33°43' W 118°16'0 0.0
2017-Aug-15 08:29N 33°43' W 118°16'0 0.1
2017-Aug-15 07:29N 33°43' W 118°16'0 0.0
2017-Aug-15 03:56N 33°43' W 118°16'0 0.0
2017-Aug-15 03:04N 33°43' W 118°16'0 0.0
2017-Aug-15 03:00N 33°43' W 118°16'0 0.0
2017-Aug-15 02:29N 33°43' W 118°16'0 0.0
2017-Aug-15 01:52N 33°43' W 118°16'0 0.0
2017-Aug-15 01:30N 33°43' W 118°16'2 3.1
2017-Aug-15 01:00N 33°42' W 118°15'2 3.0
2017-Aug-15 00:30N 33°43' W 118°16'0 0.0
2017-Aug-15 00:00N 33°43' W 118°16'0 0.0
2017-Aug-14 23:30N 33°43' W 118°16'0 0.0
2017-Aug-14 23:00N 33°43' W 118°16'0 0.0
2017-Aug-14 22:30N 33°43' W 118°16'0 0.0
2017-Aug-14 22:00N 33°43' W 118°16'0 0.0
2017-Aug-14 21:30N 33°43' W 118°16'0 0.0
2017-Aug-14 21:00N 33°43' W 118°16'1 2.8
2017-Aug-14 20:30N 33°42' W 118°15'1 2.8
2017-Aug-14 20:00N 33°43' W 118°16'1 1.5
2017-Aug-14 19:30N 33°43' W 118°16'1 1.4
2017-Aug-14 19:00N 33°43' W 118°16'0 0.0
2017-Aug-14 18:30N 33°43' W 118°16'0 0.0
2017-Aug-14 18:00N 33°43' W 118°16'0 0.0
2017-Aug-14 17:30N 33°43' W 118°16'0 0.0
2017-Aug-14 17:00N 33°43' W 118°16'0 0.0
2017-Aug-14 16:30N 33°43' W 118°16'0 0.0
2017-Aug-14 16:00N 33°43' W 118°16'0 0.0
2017-Aug-14 15:29N 33°43' W 118°16'0 0.0
2017-Aug-14 15:00N 33°43' W 118°16'0 0.0
2017-Aug-14 14:30N 33°43' W 118°16'0 0.0
2017-Aug-14 13:59N 33°43' W 118°16'2 4.4
2017-Aug-14 13:30N 33°43' W 118°14'2 4.2
2017-Aug-14 13:00N 33°43' W 118°16'0 0.0
2017-Aug-14 12:29N 33°43' W 118°16'0 0.0
2017-Aug-14 12:00N 33°43' W 118°16'0 0.0
2017-Aug-14 11:30N 33°43' W 118°16'0 0.0
2017-Aug-14 11:00N 33°43' W 118°16'0 0.5
2017-Aug-14 10:30N 33°43' W 118°16'0 0.5
2017-Aug-14 10:00N 33°43' W 118°16'0 0.2
2017-Aug-14 09:30N 33°43' W 118°16'0 0.2
2017-Aug-14 09:01N 33°43' W 118°16'  

Dump ship's entire track history